Flight Track Log - Related Links

Times and Time Zones

All times are in EDT time to prevent confusion due to time zone crossing. See the N990TC flight status page for this flight to view local times or setup timezone preferences in your user account.

Time Position Orientation Groundspeed Altitude Reporting Facility
EDT Latitude Longitude Course Direction KTS MPH feet Rate Location/Type
Tue 05:19:33 PM 39.3667 -76.4667 252° West 190 219 1,600  Level Potomac TRACON
Tue 05:20:33 PM 39.3500 -76.5333 252° West 210 242 3,000 750 Climbing Potomac TRACON
Tue 05:21:33 PM 39.3333 -76.6000 252° West 229 264 3,100 1,100 Climbing Potomac TRACON
Tue 05:22:33 PM 39.3000 -76.6833 243° Southwest 236 272 5,200 2,200 Climbing Potomac TRACON
Tue 05:23:33 PM 39.3000 -76.7667 270° West 242 278 7,500 1,400 Climbing Potomac TRACON
Tue 05:24:33 PM 39.2833 -76.8667 258° West 288 331 8,000 600 Climbing Potomac TRACON
Tue 05:25:33 PM 39.2833 -76.9667 270° West 293 337 8,700 1,617 Climbing Potomac TRACON
Tue 05:26:28 PM 39.2667 -77.0667 258° West 296 341 11,100 3,273 Climbing Potomac TRACON
Tue 05:27:34 PM 39.2333 -77.1500 243° Southwest 266 306 15,300 2,727 Climbing Potomac TRACON
Tue 05:28:40 PM 39.1667 -77.2167 218° Southwest 291 335 17,100 1,650 Climbing Potomac TRACON
Tue 05:29:34 PM 39.1000 -77.2833 218° Southwest 326 375 18,600 1,842 Climbing Potomac TRACON
Tue 05:30:34 PM 39.0333 -77.3500 218° Southwest 333 383 20,600 1,952 Climbing Potomac TRACON
Tue 05:31:40 PM 38.9333 -77.3833 195° South 331 381 22,700 1,200 Climbing Potomac TRACON
Tue 05:32:34 PM 38.8500 -77.4167 197° South 367 422 23,000 150 Climbing Potomac TRACON
Tue 05:33:40 PM 38.7333 -77.4500 193° South 403 464 23,000  Level Potomac TRACON
Tue 05:35:05 PM 38.5856 -77.5039 196° South 397 457 23,000  Level Washington Center
Tue 05:36:05 PM 38.4806 -77.5383 194° South 392 451 23,000 248 Level Washington Center
Tue 05:37:06 PM 38.3819 -77.5889 202° Southwest 392 451 23,500 1,785 Climbing Washington Center
Tue 05:38:06 PM 38.3197 -77.6850 230° Southwest 363 418 26,600 1,736 Climbing Washington Center
Tue 05:39:07 PM 38.2578 -77.7758 229° Southwest 351 404 27,000 356 Climbing Washington Center
Tue 05:40:04 PM 38.1767 -77.8633 220° Southwest 358 412 27,300 508 Climbing Washington Center
Tue 05:41:05 PM 38.1119 -77.9750 234° Southwest 378 435 28,000 347 Climbing Washington Center
Tue 05:42:05 PM 38.0492 -78.0889 235° Southwest 390 449 28,000  Level Washington Center
Tue 05:43:06 PM 37.9886 -78.1975 235° Southwest 395 455 28,000 347 Level Washington Center
Tue 05:44:06 PM 37.9175 -78.3003 229° Southwest 395 455 28,700 1,322 Climbing Washington Center
Tue 05:45:04 PM 37.8572 -78.3850 228° Southwest 385 443 30,600 1,678 Climbing Washington Center
Tue 05:46:04 PM 37.7944 -78.4747 228° Southwest 362 417 32,000 800 Climbing Washington Center
Tue 05:47:04 PM 37.7297 -78.5667 228° Southwest 357 411 32,200 492 Climbing Washington Center
Tue 05:48:06 PM 37.6647 -78.6586 228° Southwest 357 411 33,000 750 Climbing Washington Center
Tue 05:49:04 PM 37.5889 -78.7656 228° Southwest 363 418 33,700 1,322 Climbing Washington Center
Tue 05:50:04 PM 37.5219 -78.8597 228° Southwest 363 418 35,600 1,636 Climbing Washington Center
Tue 05:51:05 PM 37.4589 -78.9486 228° Southwest 358 412 37,000 1,180 Climbing Washington Center
Tue 05:52:06 PM 37.3981 -79.0322 228° Southwest 353 406 38,000 504 Climbing Washington Center
Tue 05:53:04 PM 37.3372 -79.1131 227° Southwest 353 406 38,000  Level Washington Center
Tue 05:54:04 PM 37.2675 -79.2142 229° Southwest 364 419 38,000  Level Washington Center
Tue 05:55:05 PM 37.1894 -79.3097 224° Southwest 388 447 38,000 496 Level Washington Center
Tue 05:56:05 PM 37.1156 -79.4075 227° Southwest 388 447 39,000 992 Climbing Washington Center
Tue 05:57:06 PM 37.0439 -79.4978 225° Southwest 381 438 40,000 504 Climbing Washington Center
Tue 05:58:04 PM 36.9611 -79.6028 225° Southwest 381 438 40,000  Level Washington Center
Tue 05:59:05 PM 36.8803 -79.7050 225° Southwest 388 447 40,000  Level Washington Center
Tue 06:00:05 PM 36.7997 -79.8019 224° Southwest 401 461 40,000  Level Washington Center
Tue 06:01:18 PM 36.7067 -79.9192 225° Southwest 411 473 40,000  Level Atlanta Center
Tue 06:02:18 PM 36.6264 -80.0164 224° Southwest 417 480 40,000  Level Atlanta Center
Tue 06:03:18 PM 36.5461 -80.1161 225° Southwest 412 474 40,000  Level Atlanta Center
Tue 06:04:18 PM 36.4600 -80.2236 225° Southwest 407 468 40,000  Level Atlanta Center
Tue 06:05:18 PM 36.3794 -80.3175 223° Southwest 407 468 40,000  Level Atlanta Center
Tue 06:06:18 PM 36.3192 -80.3925 225° Southwest 407 468 40,000  Level Atlanta Center
Tue 06:07:18 PM 36.2244 -80.5075 224° Southwest 402 463 40,000  Level Atlanta Center
Tue 06:08:18 PM 36.1414 -80.5986 222° Southwest 402 463 40,000  Level Atlanta Center
Tue 06:09:18 PM 36.0683 -80.6711 219° Southwest 396 456 40,000  Level Atlanta Center
Tue 06:10:18 PM 35.9831 -80.7567 219° Southwest 396 456 40,000  Level Atlanta Center
Tue 06:11:18 PM 35.8997 -80.8419 220° Southwest 396 456 40,000  Level Atlanta Center
Tue 06:12:18 PM 35.8103 -80.9328 219° Southwest 391 450 40,000  Level Atlanta Center
Tue 06:13:18 PM 35.7269 -81.0150 219° Southwest 391 450 40,000  Level Atlanta Center
Tue 06:14:18 PM 35.6394 -81.1028 219° Southwest 391 450 40,000  Level Atlanta Center
Tue 06:15:18 PM 35.5536 -81.1850 218° Southwest 405 466 40,000  Level Atlanta Center
Tue 06:16:18 PM 35.4744 -81.2744 223° Southwest 405 466 40,000  Level Atlanta Center
Tue 06:17:18 PM 35.4097 -81.3783 233° Southwest 419 482 40,000  Level Atlanta Center
Tue 06:18:18 PM 35.3475 -81.4822 234° Southwest 397 457 40,000  Level Atlanta Center
Tue 06:19:18 PM 35.2828 -81.5886 233° Southwest 390 449 40,000  Level Atlanta Center
Tue 06:20:18 PM 35.2119 -81.7078 234° Southwest 390 449 40,000  Level Atlanta Center
Tue 06:21:18 PM 35.1472 -81.8111 233° Southwest 390 449 40,000  Level Atlanta Center
Tue 06:22:18 PM 35.0825 -81.9194 234° Southwest 391 450 40,000  Level Atlanta Center
Tue 06:23:18 PM 35.0172 -82.0225 232° Southwest 391 450 40,000  Level Atlanta Center
Tue 06:24:18 PM 34.9503 -82.1306 233° Southwest 391 450 40,000  Level Atlanta Center
Tue 06:25:18 PM 34.8869 -82.2283 232° Southwest 381 438 40,000  Level Atlanta Center
Tue 06:26:18 PM 34.8217 -82.3333 233° Southwest 381 438 40,000  Level Atlanta Center
Tue 06:27:18 PM 34.7564 -82.4408 234° Southwest 386 444 40,000  Level Atlanta Center
Tue 06:28:18 PM 34.6889 -82.5483 233° Southwest 396 456 40,000  Level Atlanta Center
Tue 06:29:18 PM 34.6294 -82.6428 233° Southwest 390 449 40,000  Level Atlanta Center
Tue 06:30:18 PM 34.5575 -82.7447 229° Southwest 397 457 40,000  Level Atlanta Center
Tue 06:31:18 PM 34.4961 -82.8517 235° Southwest 402 463 40,000  Level Atlanta Center
Tue 06:32:18 PM 34.4281 -82.9583 232° Southwest 397 457 40,000  Level Atlanta Center
Tue 06:33:18 PM 34.3561 -83.0750 233° Southwest 397 457 40,000  Level Atlanta Center
Tue 06:34:18 PM 34.2881 -83.1764 231° Southwest 397 457 40,000  Level Atlanta Center
Tue 06:35:18 PM 34.2219 -83.2825 233° Southwest 397 457 40,000  Level Atlanta Center
Tue 06:36:18 PM 34.1556 -83.3861 232° Southwest 397 457 40,000  Level Atlanta Center
Tue 06:37:18 PM 34.0853 -83.4894 231° Southwest 402 463 40,000  Level Atlanta Center
Tue 06:38:18 PM 34.0189 -83.5953 233° Southwest 402 463 40,000  Level Atlanta Center
Tue 06:39:18 PM 33.9525 -83.6983 232° Southwest 402 463 40,000  Level Atlanta Center
Tue 06:40:18 PM 33.8839 -83.8011 231° Southwest 402 463 40,000  Level Atlanta Center
Tue 06:41:18 PM 33.8172 -83.9039 232° Southwest 402 463 40,000  Level Atlanta Center
Tue 06:42:18 PM 33.7544 -83.9964 231° Southwest 395 455 40,000  Level Atlanta Center
Tue 06:43:18 PM 33.6878 -84.1011 233° Southwest 395 455 40,000  Level Atlanta Center
Tue 06:44:18 PM 33.6125 -84.2158 232° Southwest 400 460 40,000  Level Atlanta Center
Tue 06:45:18 PM 33.5497 -84.3081 231° Southwest 400 460 40,000  Level Atlanta Center
Tue 06:46:18 PM 33.4744 -84.4222 232° Southwest 400 460 40,000  Level Atlanta Center
Tue 06:47:18 PM 33.4072 -84.5267 232° Southwest 400 460 40,000  Level Atlanta Center
Tue 06:48:18 PM 33.3400 -84.6281 232° Southwest 400 460 40,000  Level Atlanta Center
Tue 06:49:18 PM 33.2725 -84.7294 231° Southwest 395 455 40,000  Level Atlanta Center
Tue 06:50:18 PM 33.2072 -84.8308 232° Southwest 395 455 40,000  Level Atlanta Center
Tue 06:51:18 PM 33.1378 -84.9294 230° Southwest 395 455 40,000  Level Atlanta Center
Tue 06:52:18 PM 33.0722 -85.0303 232° Southwest 395 455 40,000  Level Atlanta Center
Tue 06:53:18 PM 33.0089 -85.1214 230° Southwest 395 455 40,000  Level Atlanta Center
Tue 06:54:18 PM 32.9453 -85.2172 232° Southwest 384 442 40,000  Level Atlanta Center
Tue 06:55:18 PM 32.8775 -85.3175 231° Southwest 384 442 40,000  Level Atlanta Center
Tue 06:56:18 PM 32.8097 -85.4178 231° Southwest 389 448 40,000  Level Atlanta Center
Tue 06:57:18 PM 32.7417 -85.5156 230° Southwest 389 448 40,000  Level Atlanta Center
Tue 06:58:18 PM 32.6717 -85.6156 230° Southwest 389 448 40,000  Level Atlanta Center
Tue 06:59:18 PM 32.6056 -85.7131 231° Southwest 394 453 40,000  Level Atlanta Center
Tue 07:00:18 PM 32.5375 -85.8128 231° Southwest 389 448 40,000  Level Atlanta Center
Tue 07:01:18 PM 32.4692 -85.9150 232° Southwest 389 448 40,000  Level Atlanta Center
Tue 07:02:18 PM 32.3986 -86.0142 230° Southwest 396 456 40,000  Level Atlanta Center
Tue 07:03:18 PM 32.3283 -86.1133 230° Southwest 396 456 40,000  Level Atlanta Center
Tue 07:04:18 PM 32.2597 -86.2100 230° Southwest 396 456 40,000  Level Atlanta Center
Tue 07:05:18 PM 32.2017 -86.3117 236° Southwest 390 449 40,000  Level Atlanta Center
Tue 07:06:18 PM 32.1331 -86.4106 231° Southwest 404 465 40,000  Level Atlanta Center
Tue 07:07:18 PM 32.0622 -86.5067 229° Southwest 393 452 40,000  Level Atlanta Center
Tue 07:08:18 PM 31.9956 -86.6053 231° Southwest 393 452 40,000  Level Atlanta Center
Tue 07:09:18 PM 31.9139 -86.7081 227° Southwest 393 452 40,000  Level Atlanta Center
Tue 07:10:18 PM 31.8472 -86.8064 231° Southwest 393 452 40,000  Level Atlanta Center
Tue 07:11:18 PM 31.7803 -86.8997 230° Southwest 393 452 40,000  Level Atlanta Center
Tue 07:12:18 PM 31.7133 -86.9928 230° Southwest 388 447 40,000  Level Atlanta Center
Tue 07:13:18 PM 31.6569 -87.0786 232° Southwest 382 440 40,000  Level Atlanta Center
Tue 07:14:18 PM 31.5878 -87.1739 230° Southwest 382 440 40,000  Level Atlanta Center
Tue 07:15:18 PM 31.5208 -87.2689 230° Southwest 388 447 40,000  Level Atlanta Center
Tue 07:15:48 PM 31.4808 -87.3175 226° Southwest 377 434 40,000  Level Houston Center
Tue 07:16:50 PM 31.4122 -87.4131 230° Southwest 380 437 40,000  Level Houston Center
Tue 07:17:51 PM 31.3447 -87.5081 230° Southwest 380 437 40,000  Level Houston Center
Tue 07:18:53 PM 31.2769 -87.6025 230° Southwest 380 437 40,000  Level Houston Center
Tue 07:19:55 PM 31.2092 -87.6958 230° Southwest 378 435 40,000  Level Houston Center
Tue 07:20:57 PM 31.1264 -87.8078 229° Southwest 378 435 40,000  Level Houston Center
Tue 07:21:59 PM 31.0606 -87.9008 230° Southwest 374 430 40,000  Level Houston Center
Tue 07:23:01 PM 30.9931 -87.9922 229° Southwest 373 429 40,000  Level Houston Center
Tue 07:24:03 PM 30.9242 -88.0839 229° Southwest 377 434 40,000  Level Houston Center
Tue 07:25:04 PM 30.8675 -88.1833 236° Southwest 370 426 40,000  Level Houston Center
Tue 07:26:06 PM 30.8322 -88.2925 249° West 360 414 40,000  Level Houston Center
Tue 07:27:08 PM 30.7933 -88.3992 247° West 357 411 40,000  Level Houston Center
Tue 07:28:10 PM 30.7461 -88.5272 247° West 358 412 40,000  Level Houston Center
Tue 07:29:12 PM 30.7089 -88.6328 248° West 354 407 40,000  Level Houston Center
Tue 07:30:14 PM 30.6744 -88.7261 247° West 354 407 40,000  Level Houston Center
Tue 07:31:15 PM 30.6275 -88.8533 247° West 354 407 40,000  Level Houston Center
Tue 07:32:17 PM 30.5936 -88.9492 248° West 353 406 40,000  Level Houston Center
Tue 07:33:19 PM 30.5558 -89.0556 248° West 356 410 40,000  Level Houston Center
Tue 07:34:21 PM 30.5161 -89.1603 246° West 354 407 40,000  Level Houston Center
Tue 07:35:22 PM 30.4706 -89.2864 247° West 352 405 40,000  Level Houston Center
Tue 07:36:24 PM 30.4319 -89.3931 247° West 358 412 40,000  Level Houston Center
Tue 07:37:26 PM 30.3928 -89.4972 246° West 354 407 40,000  Level Houston Center
Tue 07:38:28 PM 30.3536 -89.6025 247° West 352 405 40,000  Level Houston Center
Tue 07:39:29 PM 30.3061 -89.7181 245° Southwest 365 420 40,000  Level Houston Center
Tue 07:40:31 PM 30.2681 -89.8233 247° West 358 412 40,000  Level Houston Center
Tue 07:41:33 PM 30.2297 -89.9292 247° West 357 411 40,000  Level Houston Center
Tue 07:42:35 PM 30.1908 -90.0367 247° West 361 415 40,000  Level Houston Center
Tue 07:43:36 PM 30.1494 -90.1417 246° West 359 413 40,000  Level Houston Center
Tue 07:44:38 PM 30.1100 -90.2472 247° West 358 412 40,000  Level Houston Center
Tue 07:45:40 PM 30.0625 -90.3736 247° West 358 412 40,000  Level Houston Center
Tue 07:46:42 PM 30.0217 -90.4794 246° West 361 415 40,000  Level Houston Center
Tue 07:47:43 PM 29.9814 -90.5836 246° West 358 412 40,000  Level Houston Center
Tue 07:48:45 PM 29.9411 -90.6900 246° West 360 414 40,000  Level Houston Center
Tue 07:49:47 PM 29.9000 -90.7961 246° West 362 417 40,000  Level Houston Center
Tue 07:50:48 PM 29.8583 -90.9039 246° West 366 421 40,000  Level Houston Center
Tue 07:51:50 PM 29.8364 -91.0183 258° West 368 423 40,000  Level Houston Center
Tue 07:52:52 PM 29.8164 -91.1578 261° West 368 423 40,000  Level Houston Center
Tue 07:53:54 PM 29.7978 -91.2747 260° West 371 427 40,000  Level Houston Center
Tue 07:54:55 PM 29.7803 -91.3939 260° West 375 432 40,000  Level Houston Center
Tue 07:55:57 PM 29.7617 -91.5117 260° West 375 432 40,000  Level Houston Center
Tue 07:56:59 PM 29.7439 -91.6278 260° West 372 428 40,000  Level Houston Center
Tue 07:58:01 PM 29.7258 -91.7444 260° West 371 427 40,000  Level Houston Center
Tue 07:59:02 PM 29.7072 -91.8622 260° West 372 428 40,000  Level Houston Center
Tue 08:00:04 PM 29.6847 -92.0042 260° West 375 432 40,000  Level Houston Center
Tue 08:01:06 PM 29.6661 -92.1208 260° West 373 429 40,000  Level Houston Center
Tue 08:02:08 PM 29.6478 -92.2378 260° West 372 428 40,000  Level Houston Center
Tue 08:03:09 PM 29.6283 -92.3544 259° West 371 427 40,000  Level Houston Center
Tue 08:04:11 PM 29.6106 -92.4708 260° West 371 427 40,000  Level Houston Center
Tue 08:05:13 PM 29.5919 -92.5867 260° West 369 425 40,000  Level Houston Center
Tue 08:06:15 PM 29.5722 -92.7011 259° West 365 420 40,000 -290 Level Houston Center
Tue 08:07:17 PM 29.5500 -92.8403 260° West 368 423 39,400 -1,258 Descending Houston Center
Tue 08:08:19 PM 29.5289 -92.9628 259° West 385 443 37,400 -1,984 Descending Houston Center
Tue 08:09:21 PM 29.5092 -93.0878 260° West 394 453 35,300 -2,146 Descending Houston Center
Tue 08:10:22 PM 29.4872 -93.2142 259° West 401 461 33,000 -2,244 Descending Houston Center
Tue 08:11:24 PM 29.4664 -93.3431 260° West 408 470 30,700 -2,226 Descending Houston Center
Tue 08:12:26 PM 29.4275 -93.4669 250° West 413 475 28,400 -2,226 Descending Houston Center
Tue 08:13:28 PM 29.3775 -93.5881 245° Southwest 419 482 26,100 -2,758 Descending Houston Center
Tue 08:14:30 PM 29.3508 -93.7278 258° West 381 438 22,700 -3,048 Descending Houston Center
Tue 08:15:32 PM 29.3394 -93.8508 264° West 387 445 19,800 -2,634 Descending Houston Center
Tue 08:16:33 PM 29.3269 -93.9503 262° West 372 428 17,300 -3,000 Descending Houston Center
Tue 08:17:24 PM 29.3167 -94.0617 264° West 341 392 14,200 -3,000 Descending Houston Center
Tue 08:18:19 PM 29.3114 -94.1558 266° West 337 388 12,000 -1,138 Descending Houston Center
Tue 08:19:20 PM 29.3411 -94.2622 288° West 334 384 12,000  Level Houston Center
Tue 08:20:21 PM 29.3808 -94.3650 294° West 337 388 12,000 -47 Level Houston Center
Tue 08:21:28 PM 29.4081 -94.4719 286° West 325 374 11,900 -837 Descending Houston Center
Tue 08:22:30 PM 29.3864 -94.5708 256° West 314 361 10,200 -1,814 Descending Houston Center
Tue 08:23:37 PM 29.3672 -94.6764 258° West 291 335 8,000 -1,087 Descending Houston Center
Tue 08:24:48 PM 29.4081 -94.7719 296° West 296 341 7,700 -776 Descending Houston Center
Tue 08:25:33 PM 29.4367 -94.8283 300° West 267 307 6,500 -1,020 Descending Houston Center
Tue 08:26:28 PM 29.4681 -94.8942 299° West 252 290 6,000 -259 Descending Houston Center
Tue 08:27:29 PM 29.4994 -94.9597 299° West 232 267 6,000  Level Houston Center
Tue 08:28:30 PM 29.5389 -95.0414 299° West 297 342 6,000  Level Houston Center
Tue 08:29:31 PM 29.5800 -95.1228 300° West 287 330 6,000  Level Houston Center
Tue 08:30:32 PM 29.5708 -95.2033 263° West 259 298 6,000 -590 Level Houston Center
Tue 08:31:33 PM 29.5331 -95.2728 238° Southwest 274 315 4,800 -1,854 Descending Houston Center
Tue 08:32:35 PM 29.5578 -95.3369 294° West 259 298 2,200 -1,902 Descending Houston Center
Tue 08:33:36 PM 29.6047 -95.3217 16° North 161 185 900 -934 Descending Houston Center
Tue 08:34:37 PM 29.6297 -95.2947 43° Northeast 104 120 300 -590 Descending Houston Center

Login

Don't have an account? Register now (free) for customized features, flight alerts, and more!